KLGF/LGF METAR and TAF weather

Enter ICAO airport designator
Station Type Date Time Source
KLGF METAR 2020/04/01 21:58 UTC NOAA

KLGF 012158Z AUTO 22009KT 8SM CLR 30/01 A2971 RMK AO2 SLP058 T03010008 $


Station Type Date Time Source
KLGF Decoded METAR 2020/04/01 21:58 UTC NOAA

Station name not available
Apr 01, 2020 - 05:58 PM EDT / 2020.04.01 2158 UTC
Wind: from the SW (220 degrees) at 10 MPH (9 KT):0
Visibility: 8 mile(s):0
Sky conditions: clear
Temperature: 86.2 F (30.1 C)
Dew Point: 33.4 F (0.8 C)
Relative Humidity: 15%
Pressure (altimeter): 29.71 in. Hg (1006 hPa)
ob: KLGF 012158Z AUTO 22009KT 8SM CLR 30/01 A2971 RMK AO2 SLP058 T03010008
cycle: 22

Station Type Date Time Source
KLGF TAF UTC NOAA

Error!

Example: see airport list